Whiteoak, MO

6:07 PM CDT on September 20, 2014 (GMT -0500)
Blytheville Municipal | Change Station
CLOSE
Current Station
Airport
Location: Blytheville Muni Airport,
Elevation: 256 ft
Nearby Weather Stations

Elev 256 ft 35.94 °N, 89.83 °W | Updated 14 minutes ago

Partly Cloudy
Partly Cloudy
84 °F
Feels Like 90 °F
N
5
Wind Variable Wind from SSE

Today
High -- | Low -- °F
--% Chance of Precip.
Yesterday
High -- | Low -- °F
Precip. -- in
6:47 AM 7:00 PM
Waning Crescent, 10% visible
Pressure 29.96 in
Visibility 10.0 miles
Clouds Few 5000 ft
Heat Index 90 °F
Dew Point 72 °F
Humidity 67%
Rainfall 0.00 in
Snow Depth Not available.
UV 1 out of 12
Pollen 8.60 out of 12
Air Quality Not available.
Flu Activity Not available.
METAR KHKA 202253Z AUTO 16004KT 10SM FEW050 29/22 A2997 RMK AO2 SLP145 T02890222

More Conditions Fewer Conditions

Pressure 29.96 in
Visibility 10.0 miles
Clouds Few 5000 ft
Heat Index 90 °F
Dew Point 72 °F
Humidity 67%
Rainfall 0.00 in
Snow Depth Not available.
UV 1 out of 12
Pollen 8.60 out of 12
Air Quality Not available.
Flu Activity Not available.
METAR KHKA 202253Z AUTO 16004KT 10SM FEW050 29/22 A2997 RMK AO2 SLP145 T02890222

More Conditions Fewer Conditions

10-Day Weather Forecast

Almanac

Astronomy

Sep. 20, 2014 Rise Set
Actual Time 6:47 AM CDT 7:00 PM CDT
Civil Twilight 6:21 AM CDT 7:26 PM CDT
Nautical Twilight 5:51 AM CDT 7:56 PM CDT
Astronomical Twilight 5:20 AM CDT 8:26 PM CDT
Moon 3:31 AM CDT 4:59 PM CDT
Length of Visible Light 13h 04m
Length of Day
12h 13m
Tomorrow will be 2m 16s shorter.
Waning Crescent, 10% of the Moon is Illuminated
Today
Waning Crescent
Sep 24
New
Oct 1
First Quarter
Oct 8
Full
Oct 15
Last Quarter

Today's Extremes

State Highs State Lows

Community

WunderPhotos

Upload Photos

1,754,972 photos uploaded!

WunderBlogs® & News

Nearby

Snow Depth

Station Depth Elevation
No new snow has been reported.

Earthquake Activity

City Distance Mag. Time & Date
No recent earthquake activity has been reported nearby.
Minimum magnitude displayed is 2.5.

Coastal Water Temperatures

Place Temperature
No Stations Reporting

Nearby Weather Stations